sensor_id;sensor_type;location;lat;lon;timestamp;P1;durP1;ratioP1;P2;durP2;ratioP2
2035;SDS011;23642;42.658;23.350;2023-08-17T00:00:37;108.40;;;101.80;;
2035;SDS011;23642;42.658;23.350;2023-08-17T00:03:04;106.83;;;100.37;;
2035;SDS011;23642;42.658;23.350;2023-08-17T00:05:31;106.23;;;99.67;;
2035;SDS011;23642;42.658;23.350;2023-08-17T00:07:59;108.57;;;102.00;;
2035;SDS011;23642;42.658;23.350;2023-08-17T00:10:31;107.93;;;101.33;;
2035;SDS011;23642;42.658;23.350;2023-08-17T00:13:01;108.50;;;101.87;;
2035;SDS011;23642;42.658;23.350;2023-08-17T00:15:29;109.77;;;103.03;;
2035;SDS011;23642;42.658;23.350;2023-08-17T00:17:57;112.13;;;105.10;;
2035;SDS011;23642;42.658;23.350;2023-08-17T00:20:24;110.10;;;103.10;;
2035;SDS011;23642;42.658;23.350;2023-08-17T00:22:50;108.20;;;101.43;;
2035;SDS011;23642;42.658;23.350;2023-08-17T00:25:17;106.83;;;100.40;;
2035;SDS011;23642;42.658;23.350;2023-08-17T00:27:44;108.10;;;101.20;;
2035;SDS011;23642;42.658;23.350;2023-08-17T00:30:13;110.73;;;104.10;;
2035;SDS011;23642;42.658;23.350;2023-08-17T00:32:45;108.30;;;101.70;;
2035;SDS011;23642;42.658;23.350;2023-08-17T00:35:12;109.27;;;102.47;;
2035;SDS011;23642;42.658;23.350;2023-08-17T00:37:38;108.50;;;101.90;;
2035;SDS011;23642;42.658;23.350;2023-08-17T00:40:06;108.17;;;101.50;;
2035;SDS011;23642;42.658;23.350;2023-08-17T00:42:33;108.27;;;101.43;;
2035;SDS011;23642;42.658;23.350;2023-08-17T00:45:00;106.63;;;99.80;;
2035;SDS011;23642;42.658;23.350;2023-08-17T00:47:30;105.67;;;99.37;;
2035;SDS011;23642;42.658;23.350;2023-08-17T00:49:57;107.33;;;100.80;;
2035;SDS011;23642;42.658;23.350;2023-08-17T00:52:25;106.17;;;99.40;;
2035;SDS011;23642;42.658;23.350;2023-08-17T00:54:52;109.83;;;103.13;;
2035;SDS011;23642;42.658;23.350;2023-08-17T00:57:21;108.93;;;102.37;;
2035;SDS011;23642;42.658;23.350;2023-08-17T00:59:49;108.83;;;102.33;;
2035;SDS011;23642;42.658;23.350;2023-08-17T01:02:17;107.50;;;101.03;;
2035;SDS011;23642;42.658;23.350;2023-08-17T01:04:48;108.37;;;101.57;;
2035;SDS011;23642;42.658;23.350;2023-08-17T01:07:14;108.73;;;102.10;;
2035;SDS011;23642;42.658;23.350;2023-08-17T01:09:41;108.87;;;102.43;;
2035;SDS011;23642;42.658;23.350;2023-08-17T01:12:12;108.53;;;102.00;;
2035;SDS011;23642;42.658;23.350;2023-08-17T01:14:47;107.07;;;100.63;;
2035;SDS011;23642;42.658;23.350;2023-08-17T01:17:22;106.10;;;99.87;;
2035;SDS011;23642;42.658;23.350;2023-08-17T01:19:56;108.20;;;101.80;;
2035;SDS011;23642;42.658;23.350;2023-08-17T01:22:24;109.23;;;102.83;;
2035;SDS011;23642;42.658;23.350;2023-08-17T01:28:02;107.87;;;101.47;;
2035;SDS011;23642;42.658;23.350;2023-08-17T01:30:31;112.00;;;105.27;;
2035;SDS011;23642;42.658;23.350;2023-08-17T01:33:06;105.30;;;99.10;;
2035;SDS011;23642;42.658;23.350;2023-08-17T01:35:37;111.87;;;105.47;;
2035;SDS011;23642;42.658;23.350;2023-08-17T01:38:09;109.23;;;102.83;;
2035;SDS011;23642;42.658;23.350;2023-08-17T01:40:39;104.97;;;98.73;;
2035;SDS011;23642;42.658;23.350;2023-08-17T01:43:09;106.77;;;100.57;;
2035;SDS011;23642;42.658;23.350;2023-08-17T01:48:22;109.37;;;102.83;;
2035;SDS011;23642;42.658;23.350;2023-08-17T01:50:48;108.70;;;102.13;;
2035;SDS011;23642;42.658;23.350;2023-08-17T01:53:15;107.00;;;100.90;;
2035;SDS011;23642;42.658;23.350;2023-08-17T01:55:42;107.10;;;100.33;;
2035;SDS011;23642;42.658;23.350;2023-08-17T01:58:10;110.83;;;104.03;;
2035;SDS011;23642;42.658;23.350;2023-08-17T02:00:40;109.00;;;102.60;;
2035;SDS011;23642;42.658;23.350;2023-08-17T02:03:07;109.03;;;102.43;;
2035;SDS011;23642;42.658;23.350;2023-08-17T02:05:33;106.83;;;100.50;;
2035;SDS011;23642;42.658;23.350;2023-08-17T02:08:00;108.70;;;101.97;;
2035;SDS011;23642;42.658;23.350;2023-08-17T02:10:27;107.00;;;100.60;;
2035;SDS011;23642;42.658;23.350;2023-08-17T02:12:54;107.00;;;100.50;;
2035;SDS011;23642;42.658;23.350;2023-08-17T02:15:22;108.50;;;102.03;;
2035;SDS011;23642;42.658;23.350;2023-08-17T02:17:50;107.97;;;101.57;;
2035;SDS011;23642;42.658;23.350;2023-08-17T02:20:17;110.30;;;103.63;;
2035;SDS011;23642;42.658;23.350;2023-08-17T02:22:44;110.53;;;103.57;;
2035;SDS011;23642;42.658;23.350;2023-08-17T02:25:11;110.20;;;103.57;;
2035;SDS011;23642;42.658;23.350;2023-08-17T02:27:37;107.50;;;101.10;;
2035;SDS011;23642;42.658;23.350;2023-08-17T02:30:05;108.40;;;101.80;;
2035;SDS011;23642;42.658;23.350;2023-08-17T02:32:34;111.00;;;104.30;;
2035;SDS011;23642;42.658;23.350;2023-08-17T02:35:01;110.20;;;103.50;;
2035;SDS011;23642;42.658;23.350;2023-08-17T02:37:31;106.83;;;100.53;;
2035;SDS011;23642;42.658;23.350;2023-08-17T02:39:57;108.20;;;101.73;;
2035;SDS011;23642;42.658;23.350;2023-08-17T02:42:24;106.97;;;100.20;;
2035;SDS011;23642;42.658;23.350;2023-08-17T02:44:51;107.97;;;101.37;;
2035;SDS011;23642;42.658;23.350;2023-08-17T02:47:18;105.93;;;99.20;;
2035;SDS011;23642;42.658;23.350;2023-08-17T02:49:46;106.90;;;100.23;;
2035;SDS011;23642;42.658;23.350;2023-08-17T02:52:14;108.13;;;101.43;;
2035;SDS011;23642;42.658;23.350;2023-08-17T02:54:41;109.13;;;102.43;;
2035;SDS011;23642;42.658;23.350;2023-08-17T02:57:07;108.23;;;101.83;;
2035;SDS011;23642;42.658;23.350;2023-08-17T02:59:34;108.07;;;101.47;;
2035;SDS011;23642;42.658;23.350;2023-08-17T03:02:01;107.17;;;100.80;;
2035;SDS011;23642;42.658;23.350;2023-08-17T03:04:28;108.60;;;101.90;;
2035;SDS011;23642;42.658;23.350;2023-08-17T03:06:56;110.13;;;103.53;;
2035;SDS011;23642;42.658;23.350;2023-08-17T03:09:23;108.20;;;101.33;;
2035;SDS011;23642;42.658;23.350;2023-08-17T03:11:49;106.97;;;100.10;;
2035;SDS011;23642;42.658;23.350;2023-08-17T03:14:16;110.87;;;104.27;;
2035;SDS011;23642;42.658;23.350;2023-08-17T03:16:43;106.17;;;99.57;;
2035;SDS011;23642;42.658;23.350;2023-08-17T03:19:10;108.80;;;102.30;;
2035;SDS011;23642;42.658;23.350;2023-08-17T03:21:37;105.87;;;99.47;;
2035;SDS011;23642;42.658;23.350;2023-08-17T03:24:06;109.70;;;102.70;;
2035;SDS011;23642;42.658;23.350;2023-08-17T03:26:33;105.87;;;99.27;;
2035;SDS011;23642;42.658;23.350;2023-08-17T03:28:59;106.27;;;99.50;;
2035;SDS011;23642;42.658;23.350;2023-08-17T03:31:26;107.10;;;100.13;;
2035;SDS011;23642;42.658;23.350;2023-08-17T03:33:53;105.50;;;98.80;;
2035;SDS011;23642;42.658;23.350;2023-08-17T03:36:21;100.83;;;94.43;;
2035;SDS011;23642;42.658;23.350;2023-08-17T03:38:48;103.97;;;97.47;;
2035;SDS011;23642;42.658;23.350;2023-08-17T03:41:16;102.13;;;95.83;;
2035;SDS011;23642;42.658;23.350;2023-08-17T03:43:43;101.73;;;95.23;;
2035;SDS011;23642;42.658;23.350;2023-08-17T03:46:10;102.83;;;95.73;;
2035;SDS011;23642;42.658;23.350;2023-08-17T03:48:37;103.93;;;97.33;;
2035;SDS011;23642;42.658;23.350;2023-08-17T03:51:04;101.83;;;95.47;;
2035;SDS011;23642;42.658;23.350;2023-08-17T03:53:31;108.10;;;101.20;;
2035;SDS011;23642;42.658;23.350;2023-08-17T03:55:58;103.77;;;97.43;;
2035;SDS011;23642;42.658;23.350;2023-08-17T03:58:26;103.70;;;97.23;;
2035;SDS011;23642;42.658;23.350;2023-08-17T04:00:58;101.87;;;95.33;;
2035;SDS011;23642;42.658;23.350;2023-08-17T04:03:28;102.67;;;96.13;;
2035;SDS011;23642;42.658;23.350;2023-08-17T04:05:57;103.90;;;97.47;;
2035;SDS011;23642;42.658;23.350;2023-08-17T04:08:24;103.10;;;96.40;;
2035;SDS011;23642;42.658;23.350;2023-08-17T04:10:52;101.70;;;95.30;;
2035;SDS011;23642;42.658;23.350;2023-08-17T04:13:19;101.33;;;94.93;;
2035;SDS011;23642;42.658;23.350;2023-08-17T04:15:47;102.47;;;95.80;;
2035;SDS011;23642;42.658;23.350;2023-08-17T04:18:16;100.07;;;93.77;;
2035;SDS011;23642;42.658;23.350;2023-08-17T04:20:43;104.23;;;96.83;;
2035;SDS011;23642;42.658;23.350;2023-08-17T04:23:10;102.83;;;95.90;;
2035;SDS011;23642;42.658;23.350;2023-08-17T04:25:37;105.50;;;98.70;;
2035;SDS011;23642;42.658;23.350;2023-08-17T04:28:04;104.20;;;97.50;;
2035;SDS011;23642;42.658;23.350;2023-08-17T04:30:30;103.40;;;96.70;;
2035;SDS011;23642;42.658;23.350;2023-08-17T04:32:58;103.23;;;96.80;;
2035;SDS011;23642;42.658;23.350;2023-08-17T04:35:26;101.77;;;95.10;;
2035;SDS011;23642;42.658;23.350;2023-08-17T04:37:52;103.50;;;96.90;;
2035;SDS011;23642;42.658;23.350;2023-08-17T04:40:21;101.03;;;94.67;;
2035;SDS011;23642;42.658;23.350;2023-08-17T04:42:48;103.47;;;97.07;;
2035;SDS011;23642;42.658;23.350;2023-08-17T04:45:15;100.60;;;94.10;;
2035;SDS011;23642;42.658;23.350;2023-08-17T04:47:42;102.33;;;95.57;;
2035;SDS011;23642;42.658;23.350;2023-08-17T04:50:11;101.10;;;94.57;;
2035;SDS011;23642;42.658;23.350;2023-08-17T04:52:41;101.03;;;94.63;;
2035;SDS011;23642;42.658;23.350;2023-08-17T04:55:08;103.43;;;96.60;;
2035;SDS011;23642;42.658;23.350;2023-08-17T04:57:35;101.10;;;94.30;;
2035;SDS011;23642;42.658;23.350;2023-08-17T05:00:02;100.17;;;93.77;;
2035;SDS011;23642;42.658;23.350;2023-08-17T05:02:33;100.73;;;93.70;;
2035;SDS011;23642;42.658;23.350;2023-08-17T05:05:02;100.90;;;94.30;;
2035;SDS011;23642;42.658;23.350;2023-08-17T05:07:30;103.53;;;96.70;;
2035;SDS011;23642;42.658;23.350;2023-08-17T05:09:57;102.63;;;95.07;;
2035;SDS011;23642;42.658;23.350;2023-08-17T05:12:24;103.27;;;96.50;;
2035;SDS011;23642;42.658;23.350;2023-08-17T05:14:51;101.17;;;94.57;;
2035;SDS011;23642;42.658;23.350;2023-08-17T05:17:19;102.83;;;96.03;;
2035;SDS011;23642;42.658;23.350;2023-08-17T05:19:48;98.20;;;91.93;;
2035;SDS011;23642;42.658;23.350;2023-08-17T05:22:18;102.73;;;95.93;;
2035;SDS011;23642;42.658;23.350;2023-08-17T05:24:46;100.10;;;93.60;;
2035;SDS011;23642;42.658;23.350;2023-08-17T05:27:24;102.10;;;95.20;;
2035;SDS011;23642;42.658;23.350;2023-08-17T05:29:58;100.40;;;93.80;;
2035;SDS011;23642;42.658;23.350;2023-08-17T05:32:27;100.23;;;93.63;;
2035;SDS011;23642;42.658;23.350;2023-08-17T05:34:57;104.43;;;97.33;;
2035;SDS011;23642;42.658;23.350;2023-08-17T05:37:29;103.97;;;96.40;;
2035;SDS011;23642;42.658;23.350;2023-08-17T05:39:58;100.70;;;93.90;;
2035;SDS011;23642;42.658;23.350;2023-08-17T05:42:25;103.33;;;96.23;;
2035;SDS011;23642;42.658;23.350;2023-08-17T05:44:52;100.03;;;93.47;;
2035;SDS011;23642;42.658;23.350;2023-08-17T05:47:19;101.57;;;95.00;;
2035;SDS011;23642;42.658;23.350;2023-08-17T05:49:46;104.60;;;96.93;;
2035;SDS011;23642;42.658;23.350;2023-08-17T05:52:16;106.10;;;99.30;;
2035;SDS011;23642;42.658;23.350;2023-08-17T05:54:50;103.60;;;96.80;;
2035;SDS011;23642;42.658;23.350;2023-08-17T05:57:19;105.10;;;97.97;;
2035;SDS011;23642;42.658;23.350;2023-08-17T05:59:52;108.03;;;100.90;;
2035;SDS011;23642;42.658;23.350;2023-08-17T06:02:19;106.60;;;99.43;;
2035;SDS011;23642;42.658;23.350;2023-08-17T06:04:47;111.57;;;104.57;;
2035;SDS011;23642;42.658;23.350;2023-08-17T06:07:16;113.60;;;105.83;;
2035;SDS011;23642;42.658;23.350;2023-08-17T06:09:47;108.43;;;101.37;;
2035;SDS011;23642;42.658;23.350;2023-08-17T06:12:19;108.63;;;101.47;;
2035;SDS011;23642;42.658;23.350;2023-08-17T06:14:46;107.73;;;100.13;;
2035;SDS011;23642;42.658;23.350;2023-08-17T06:17:13;108.17;;;101.40;;
2035;SDS011;23642;42.658;23.350;2023-08-17T06:19:40;109.20;;;102.20;;
2035;SDS011;23642;42.658;23.350;2023-08-17T06:22:20;113.57;;;106.33;;
2035;SDS011;23642;42.658;23.350;2023-08-17T06:25:13;112.20;;;104.80;;
2035;SDS011;23642;42.658;23.350;2023-08-17T06:28:02;107.97;;;101.17;;
2035;SDS011;23642;42.658;23.350;2023-08-17T06:31:40;109.60;;;102.80;;
2035;SDS011;23642;42.658;23.350;2023-08-17T06:34:02;110.90;;;103.80;;
2035;SDS011;23642;42.658;23.350;2023-08-17T06:36:59;112.93;;;105.70;;
2035;SDS011;23642;42.658;23.350;2023-08-17T06:39:42;115.67;;;108.53;;
2035;SDS011;23642;42.658;23.350;2023-08-17T06:48:58;118.47;;;111.30;;
2035;SDS011;23642;42.658;23.350;2023-08-17T06:51:44;119.60;;;112.60;;
2035;SDS011;23642;42.658;23.350;2023-08-17T06:54:36;123.03;;;115.53;;
2035;SDS011;23642;42.658;23.350;2023-08-17T06:57:18;119.93;;;112.80;;
2035;SDS011;23642;42.658;23.350;2023-08-17T06:59:59;118.47;;;111.20;;
2035;SDS011;23642;42.658;23.350;2023-08-17T07:02:30;122.60;;;115.40;;
2035;SDS011;23642;42.658;23.350;2023-08-17T07:08:31;132.67;;;123.40;;
2035;SDS011;23642;42.658;23.350;2023-08-17T07:11:03;129.70;;;122.00;;
2035;SDS011;23642;42.658;23.350;2023-08-17T07:13:57;128.17;;;120.57;;
2035;SDS011;23642;42.658;23.350;2023-08-17T07:16:58;122.47;;;114.63;;
2035;SDS011;23642;42.658;23.350;2023-08-17T07:20:08;126.77;;;119.50;;
2035;SDS011;23642;42.658;23.350;2023-08-17T07:22:50;124.23;;;117.03;;
2035;SDS011;23642;42.658;23.350;2023-08-17T07:28:23;128.60;;;120.00;;
2035;SDS011;23642;42.658;23.350;2023-08-17T07:31:20;129.83;;;122.40;;
2035;SDS011;23642;42.658;23.350;2023-08-17T07:33:57;127.53;;;120.23;;
2035;SDS011;23642;42.658;23.350;2023-08-17T07:36:50;126.37;;;118.87;;
2035;SDS011;23642;42.658;23.350;2023-08-17T07:39:41;131.70;;;122.80;;
2035;SDS011;23642;42.658;23.350;2023-08-17T07:43:12;126.23;;;118.73;;
2035;SDS011;23642;42.658;23.350;2023-08-17T07:57:29;129.67;;;122.10;;
2035;SDS011;23642;42.658;23.350;2023-08-17T08:07:13;131.17;;;123.67;;
2035;SDS011;23642;42.658;23.350;2023-08-17T08:13:28;133.20;;;125.37;;
2035;SDS011;23642;42.658;23.350;2023-08-17T08:16:08;130.03;;;122.80;;
2035;SDS011;23642;42.658;23.350;2023-08-17T08:21:29;128.77;;;121.57;;
2035;SDS011;23642;42.658;23.350;2023-08-17T08:22:29;135.80;;;127.70;;
2035;SDS011;23642;42.658;23.350;2023-08-17T08:25:37;131.87;;;124.60;;
2035;SDS011;23642;42.658;23.350;2023-08-17T08:28:13;133.37;;;125.83;;
2035;SDS011;23642;42.658;23.350;2023-08-17T08:31:20;133.40;;;125.67;;
2035;SDS011;23642;42.658;23.350;2023-08-17T08:34:12;131.10;;;123.50;;
2035;SDS011;23642;42.658;23.350;2023-08-17T08:37:03;132.13;;;124.60;;
2035;SDS011;23642;42.658;23.350;2023-08-17T08:43:00;130.80;;;123.47;;
2035;SDS011;23642;42.658;23.350;2023-08-17T08:45:56;131.20;;;123.77;;
2035;SDS011;23642;42.658;23.350;2023-08-17T08:48:53;133.27;;;125.13;;
2035;SDS011;23642;42.658;23.350;2023-08-17T08:51:35;132.33;;;124.10;;
2035;SDS011;23642;42.658;23.350;2023-08-17T08:54:18;131.30;;;123.70;;
2035;SDS011;23642;42.658;23.350;2023-08-17T09:03:07;130.10;;;122.80;;
2035;SDS011;23642;42.658;23.350;2023-08-17T09:05:54;132.80;;;125.30;;
2035;SDS011;23642;42.658;23.350;2023-08-17T09:08:27;131.03;;;123.60;;
2035;SDS011;23642;42.658;23.350;2023-08-17T09:11:30;131.07;;;123.37;;
2035;SDS011;23642;42.658;23.350;2023-08-17T09:14:33;133.40;;;125.83;;
2035;SDS011;23642;42.658;23.350;2023-08-17T09:17:10;133.30;;;125.80;;
2035;SDS011;23642;42.658;23.350;2023-08-17T09:20:09;129.53;;;121.87;;
2035;SDS011;23642;42.658;23.350;2023-08-17T09:23:08;131.70;;;124.30;;
2035;SDS011;23642;42.658;23.350;2023-08-17T09:25:40;129.07;;;121.87;;
2035;SDS011;23642;42.658;23.350;2023-08-17T09:28:19;131.87;;;124.47;;
2035;SDS011;23642;42.658;23.350;2023-08-17T09:31:01;130.63;;;123.23;;
2035;SDS011;23642;42.658;23.350;2023-08-17T09:36:54;131.20;;;123.80;;
2035;SDS011;23642;42.658;23.350;2023-08-17T09:43:29;134.87;;;126.97;;
2035;SDS011;23642;42.658;23.350;2023-08-17T09:46:19;133.87;;;126.23;;
2035;SDS011;23642;42.658;23.350;2023-08-17T09:48:50;132.43;;;124.83;;
2035;SDS011;23642;42.658;23.350;2023-08-17T09:51:23;133.53;;;125.73;;
2035;SDS011;23642;42.658;23.350;2023-08-17T09:53:55;131.43;;;123.67;;
2035;SDS011;23642;42.658;23.350;2023-08-17T09:56:44;126.87;;;119.23;;
2035;SDS011;23642;42.658;23.350;2023-08-17T09:59:29;131.00;;;123.40;;
2035;SDS011;23642;42.658;23.350;2023-08-17T10:05:09;128.00;;;120.80;;
2035;SDS011;23642;42.658;23.350;2023-08-17T10:08:01;133.50;;;126.00;;
2035;SDS011;23642;42.658;23.350;2023-08-17T10:13:48;128.73;;;121.53;;
2035;SDS011;23642;42.658;23.350;2023-08-17T10:19:56;127.77;;;120.43;;
2035;SDS011;23642;42.658;23.350;2023-08-17T10:25:39;131.20;;;123.80;;
2035;SDS011;23642;42.658;23.350;2023-08-17T10:28:41;133.17;;;125.47;;
2035;SDS011;23642;42.658;23.350;2023-08-17T10:31:44;132.67;;;124.40;;
2035;SDS011;23642;42.658;23.350;2023-08-17T10:37:16;134.07;;;125.77;;
2035;SDS011;23642;42.658;23.350;2023-08-17T10:40:18;129.17;;;121.97;;
2035;SDS011;23642;42.658;23.350;2023-08-17T10:43:35;134.10;;;126.60;;
2035;SDS011;23642;42.658;23.350;2023-08-17T10:49:30;130.53;;;123.23;;
2035;SDS011;23642;42.658;23.350;2023-08-17T10:52:47;132.87;;;125.40;;
2035;SDS011;23642;42.658;23.350;2023-08-17T10:56:05;128.80;;;121.80;;
2035;SDS011;23642;42.658;23.350;2023-08-17T11:02:23;131.50;;;124.27;;
2035;SDS011;23642;42.658;23.350;2023-08-17T11:20:41;127.73;;;120.47;;
2035;SDS011;23642;42.658;23.350;2023-08-17T11:22:10;126.10;;;118.90;;
2035;SDS011;23642;42.658;23.350;2023-08-17T11:24:40;123.87;;;116.97;;
2035;SDS011;23642;42.658;23.350;2023-08-17T11:27:29;122.53;;;114.40;;
2035;SDS011;23642;42.658;23.350;2023-08-17T11:30:22;125.67;;;117.17;;
2035;SDS011;23642;42.658;23.350;2023-08-17T11:32:56;121.57;;;114.67;;
2035;SDS011;23642;42.658;23.350;2023-08-17T11:35:32;122.83;;;115.23;;
2035;SDS011;23642;42.658;23.350;2023-08-17T11:38:24;127.63;;;118.37;;
2035;SDS011;23642;42.658;23.350;2023-08-17T11:43:49;122.83;;;115.37;;
2035;SDS011;23642;42.658;23.350;2023-08-17T11:46:22;127.37;;;119.23;;
2035;SDS011;23642;42.658;23.350;2023-08-17T11:52:45;127.63;;;119.00;;
2035;SDS011;23642;42.658;23.350;2023-08-17T11:55:33;123.33;;;116.43;;
2035;SDS011;23642;42.658;23.350;2023-08-17T11:58:45;122.10;;;114.50;;
2035;SDS011;23642;42.658;23.350;2023-08-17T12:01:19;124.47;;;117.30;;
2035;SDS011;23642;42.658;23.350;2023-08-17T12:04:08;122.43;;;115.23;;
2035;SDS011;23642;42.658;23.350;2023-08-17T12:06:39;125.63;;;118.63;;
2035;SDS011;23642;42.658;23.350;2023-08-17T13:29:27;130.20;;;121.37;;
2035;SDS011;23642;42.658;23.350;2023-08-17T13:31:54;118.63;;;111.93;;
2035;SDS011;23642;42.658;23.350;2023-08-17T13:34:41;131.37;;;123.40;;
2035;SDS011;23642;42.658;23.350;2023-08-17T13:37:08;132.33;;;125.03;;
2035;SDS011;23642;42.658;23.350;2023-08-17T13:39:34;132.30;;;125.03;;
2035;SDS011;23642;42.658;23.350;2023-08-17T13:42:01;134.13;;;126.40;;
2035;SDS011;23642;42.658;23.350;2023-08-17T13:44:32;128.40;;;121.50;;
2035;SDS011;23642;42.658;23.350;2023-08-17T13:47:05;131.13;;;124.00;;
2035;SDS011;23642;42.658;23.350;2023-08-17T13:49:34;130.83;;;123.27;;
2035;SDS011;23642;42.658;23.350;2023-08-17T13:52:08;132.53;;;125.03;;
2035;SDS011;23642;42.658;23.350;2023-08-17T13:54:37;134.80;;;127.20;;
2035;SDS011;23642;42.658;23.350;2023-08-17T13:57:06;131.83;;;124.43;;
2035;SDS011;23642;42.658;23.350;2023-08-17T13:59:34;133.00;;;125.40;;
2035;SDS011;23642;42.658;23.350;2023-08-17T14:02:03;131.10;;;123.90;;
2035;SDS011;23642;42.658;23.350;2023-08-17T14:04:33;132.67;;;125.27;;
2035;SDS011;23642;42.658;23.350;2023-08-17T14:07:24;133.40;;;125.60;;
2035;SDS011;23642;42.658;23.350;2023-08-17T14:09:54;132.43;;;125.03;;
2035;SDS011;23642;42.658;23.350;2023-08-17T14:12:26;134.90;;;127.60;;
2035;SDS011;23642;42.658;23.350;2023-08-17T14:15:07;130.90;;;123.70;;
2035;SDS011;23642;42.658;23.350;2023-08-17T14:17:42;132.70;;;125.43;;
2035;SDS011;23642;42.658;23.350;2023-08-17T14:20:19;132.07;;;124.33;;
2035;SDS011;23642;42.658;23.350;2023-08-17T14:22:49;133.83;;;126.23;;
2035;SDS011;23642;42.658;23.350;2023-08-17T14:25:16;137.27;;;129.17;;
2035;SDS011;23642;42.658;23.350;2023-08-17T14:27:43;136.50;;;128.97;;
2035;SDS011;23642;42.658;23.350;2023-08-17T14:30:17;135.10;;;127.67;;
2035;SDS011;23642;42.658;23.350;2023-08-17T14:32:54;131.73;;;124.47;;
2035;SDS011;23642;42.658;23.350;2023-08-17T14:35:26;133.10;;;125.87;;
2035;SDS011;23642;42.658;23.350;2023-08-17T14:37:54;133.63;;;125.77;;
2035;SDS011;23642;42.658;23.350;2023-08-17T14:40:41;134.60;;;127.20;;
2035;SDS011;23642;42.658;23.350;2023-08-17T14:49:05;136.00;;;128.40;;
2035;SDS011;23642;42.658;23.350;2023-08-17T14:51:41;136.47;;;129.20;;
2035;SDS011;23642;42.658;23.350;2023-08-17T14:54:26;125.63;;;118.40;;
2035;SDS011;23642;42.658;23.350;2023-08-17T14:59:51;128.97;;;121.77;;
2035;SDS011;23642;42.658;23.350;2023-08-17T15:02:23;132.20;;;124.30;;
2035;SDS011;23642;42.658;23.350;2023-08-17T15:05:00;129.40;;;122.30;;
2035;SDS011;23642;42.658;23.350;2023-08-17T15:07:27;127.53;;;120.43;;
2035;SDS011;23642;42.658;23.350;2023-08-17T15:09:54;130.07;;;122.70;;
2035;SDS011;23642;42.658;23.350;2023-08-17T15:12:20;127.50;;;119.80;;
2035;SDS011;23642;42.658;23.350;2023-08-17T15:14:50;127.53;;;119.95;;
2035;SDS011;23642;42.658;23.350;2023-08-17T15:17:24;122.32;;;115.53;;
2035;SDS011;23642;42.658;23.350;2023-08-17T15:20:02;127.87;;;120.97;;
2035;SDS011;23642;42.658;23.350;2023-08-17T15:22:36;127.57;;;120.27;;
2035;SDS011;23642;42.658;23.350;2023-08-17T15:25:06;129.50;;;122.17;;
2035;SDS011;23642;42.658;23.350;2023-08-17T15:27:33;129.50;;;122.23;;
2035;SDS011;23642;42.658;23.350;2023-08-17T15:30:00;118.67;;;111.73;;
2035;SDS011;23642;42.658;23.350;2023-08-17T15:32:33;130.07;;;123.07;;
2035;SDS011;23642;42.658;23.350;2023-08-17T15:35:06;131.03;;;123.30;;
2035;SDS011;23642;42.658;23.350;2023-08-17T15:37:36;128.20;;;121.30;;
2035;SDS011;23642;42.658;23.350;2023-08-17T15:40:03;129.50;;;122.10;;
2035;SDS011;23642;42.658;23.350;2023-08-17T15:42:31;125.87;;;118.90;;
2035;SDS011;23642;42.658;23.350;2023-08-17T15:44:58;125.90;;;119.00;;
2035;SDS011;23642;42.658;23.350;2023-08-17T15:47:36;130.27;;;122.20;;
2035;SDS011;23642;42.658;23.350;2023-08-17T15:50:12;126.63;;;119.70;;
2035;SDS011;23642;42.658;23.350;2023-08-17T15:52:39;130.47;;;123.10;;
2035;SDS011;23642;42.658;23.350;2023-08-17T15:55:09;128.33;;;121.23;;
2035;SDS011;23642;42.658;23.350;2023-08-17T15:57:41;131.07;;;123.77;;
2035;SDS011;23642;42.658;23.350;2023-08-17T16:00:12;130.67;;;123.60;;
2035;SDS011;23642;42.658;23.350;2023-08-17T16:02:46;132.07;;;124.53;;
2035;SDS011;23642;42.658;23.350;2023-08-17T16:05:15;120.60;;;113.40;;
2035;SDS011;23642;42.658;23.350;2023-08-17T16:07:51;120.83;;;114.03;;
2035;SDS011;23642;42.658;23.350;2023-08-17T16:10:44;121.60;;;115.00;;
2035;SDS011;23642;42.658;23.350;2023-08-17T16:13:24;128.23;;;121.23;;
2035;SDS011;23642;42.658;23.350;2023-08-17T16:15:59;127.97;;;120.80;;
2035;SDS011;23642;42.658;23.350;2023-08-17T16:18:31;130.80;;;123.50;;
2035;SDS011;23642;42.658;23.350;2023-08-17T16:21:16;128.07;;;120.87;;
2035;SDS011;23642;42.658;23.350;2023-08-17T16:23:54;126.20;;;119.20;;
2035;SDS011;23642;42.658;23.350;2023-08-17T16:26:24;116.80;;;110.20;;
2035;SDS011;23642;42.658;23.350;2023-08-17T16:28:57;121.47;;;114.57;;
2035;SDS011;23642;42.658;23.350;2023-08-17T16:31:31;121.10;;;114.20;;
2035;SDS011;23642;42.658;23.350;2023-08-17T16:34:00;131.83;;;124.73;;
2035;SDS011;23642;42.658;23.350;2023-08-17T16:36:31;130.87;;;123.10;;
2035;SDS011;23642;42.658;23.350;2023-08-17T16:42:06;131.10;;;123.30;;
2035;SDS011;23642;42.658;23.350;2023-08-17T16:44:48;128.53;;;121.47;;
2035;SDS011;23642;42.658;23.350;2023-08-17T16:47:21;126.40;;;119.40;;
2035;SDS011;23642;42.658;23.350;2023-08-17T16:49:51;118.20;;;111.30;;
2035;SDS011;23642;42.658;23.350;2023-08-17T16:52:25;118.27;;;111.50;;
2035;SDS011;23642;42.658;23.350;2023-08-17T16:54:57;118.00;;;111.10;;
2035;SDS011;23642;42.658;23.350;2023-08-17T16:57:48;118.10;;;111.40;;
2035;SDS011;23642;42.658;23.350;2023-08-17T17:00:23;130.20;;;122.80;;
2035;SDS011;23642;42.658;23.350;2023-08-17T17:03:00;129.33;;;122.00;;
2035;SDS011;23642;42.658;23.350;2023-08-17T17:05:33;131.77;;;124.27;;
2035;SDS011;23642;42.658;23.350;2023-08-17T17:08:04;131.70;;;124.20;;
2035;SDS011;23642;42.658;23.350;2023-08-17T17:10:38;130.40;;;123.00;;
2035;SDS011;23642;42.658;23.350;2023-08-17T17:13:05;117.17;;;110.47;;
2035;SDS011;23642;42.658;23.350;2023-08-17T17:15:33;119.90;;;112.90;;
2035;SDS011;23642;42.658;23.350;2023-08-17T17:18:03;115.17;;;108.57;;
2035;SDS011;23642;42.658;23.350;2023-08-17T17:20:48;130.50;;;122.80;;
2035;SDS011;23642;42.658;23.350;2023-08-17T17:23:34;128.03;;;120.93;;
2035;SDS011;23642;42.658;23.350;2023-08-17T17:26:04;114.60;;;108.10;;
2035;SDS011;23642;42.658;23.350;2023-08-17T17:28:42;120.03;;;113.03;;
2035;SDS011;23642;42.658;23.350;2023-08-17T17:31:12;120.00;;;112.90;;
2035;SDS011;23642;42.658;23.350;2023-08-17T17:33:43;132.73;;;125.33;;
2035;SDS011;23642;42.658;23.350;2023-08-17T17:36:13;128.07;;;120.37;;
2035;SDS011;23642;42.658;23.350;2023-08-17T17:38:44;123.93;;;116.70;;
2035;SDS011;23642;42.658;23.350;2023-08-17T17:41:14;124.60;;;117.50;;
2035;SDS011;23642;42.658;23.350;2023-08-17T17:43:57;115.57;;;108.33;;
2035;SDS011;23642;42.658;23.350;2023-08-17T17:46:26;113.53;;;106.97;;
2035;SDS011;23642;42.658;23.350;2023-08-17T17:48:58;117.07;;;110.03;;
2035;SDS011;23642;42.658;23.350;2023-08-17T17:51:27;114.70;;;108.00;;
2035;SDS011;23642;42.658;23.350;2023-08-17T17:53:56;125.23;;;118.20;;